»·PEaware :: QXE2674 KSBA-KPSP

QXE2674 :: KSBA-KPSP

FLIGHT INFORMATION

Flight Status: Arrived
Operator:
Horizon Air
More flights by this operator :: More flights under this callsign
Pilot: Walter H. (552)
Aircraft: DEHAVILLAND DASH 8 400
(DH8D)
More flights by this aircraft type
Origin: KSBA Santa Barbara Mun
United States
Destination: KPSP Palm Springs Intl
United States
More flights between these airports :: More routes between these airports
Route: +HENER PMD V137 PSP
File this flight plan on PilotEdge
Remarks: SBAN36
Altitude:
(Current/Filed)
13,000ft
Speed:
(Current/Filed)
280kts
Departed: 20-Jan-16 01:18 PM
Arrived: 20-Jan-16 02:08 PM
Distance/Time
Traveled:
170nm/0:50
Distance/Time
To Go:
Arrived

Flight Plot

Page will automatically refresh every two minutes.

Flight plan parsing failed; only flown route is shown


Map Options




Map Legend


Flown Route
Filed Route
Departure Airport
Arrival Airport
Navaid (VOR, NDB)
Fix

Horizontal Profiles

Position Reports

Time Latitude Longitude Heading Altitude Ground
Speed
20-Jan-16 12:42 34.426028 -119.836647 188 17ft 0kts
20-Jan-16 12:43 34.426028 -119.836647 188 17ft 0kts
20-Jan-16 12:44 34.426028 -119.836647 188 17ft 0kts
20-Jan-16 12:45 34.426028 -119.836647 188 17ft 0kts
20-Jan-16 12:46 34.426028 -119.836647 188 17ft 0kts
20-Jan-16 12:47 34.426028 -119.836647 188 17ft 0kts
20-Jan-16 12:48 34.426028 -119.836647 188 17ft 0kts
20-Jan-16 12:49 34.426028 -119.836647 188 17ft 0kts
20-Jan-16 12:50 34.426028 -119.836647 188 17ft 0kts
20-Jan-16 12:51 34.426028 -119.836647 188 17ft 0kts
20-Jan-16 12:52 34.426028 -119.836647 188 17ft 0kts
20-Jan-16 12:53 34.426028 -119.836647 188 17ft 0kts
20-Jan-16 12:54 34.426028 -119.836647 188 17ft 0kts
20-Jan-16 12:55 34.426028 -119.836647 188 17ft 0kts
20-Jan-16 12:56 34.426028 -119.836647 188 17ft 0kts
20-Jan-16 12:57 34.426028 -119.836647 188 17ft 0kts
20-Jan-16 12:58 34.426028 -119.836647 188 17ft 0kts
20-Jan-16 12:59 34.426028 -119.836647 188 17ft 0kts
20-Jan-16 13:00 34.426028 -119.836647 188 17ft 0kts
20-Jan-16 13:01 34.426028 -119.836647 188 17ft 0kts
20-Jan-16 13:02 34.426028 -119.836647 188 17ft 0kts
20-Jan-16 13:03 34.426028 -119.836647 188 17ft 0kts
20-Jan-16 13:04 34.426028 -119.836647 188 17ft 0kts
20-Jan-16 13:05 34.426028 -119.836647 188 17ft 0kts
20-Jan-16 13:06 34.426371 -119.836580 189 17ft 3kts
20-Jan-16 13:07 34.426583 -119.836605 135 17ft 0kts
20-Jan-16 13:08 34.426583 -119.836605 135 17ft 0kts
20-Jan-16 13:09 34.427042 -119.835338 23 17ft 0kts
20-Jan-16 13:10 34.427042 -119.835338 23 17ft 0kts
20-Jan-16 13:11 34.427042 -119.835338 23 17ft 0kts
20-Jan-16 13:12 34.427048 -119.835335 23 17ft 1kts
20-Jan-16 13:13 34.427440 -119.854054 269 247ft 137kts
20-Jan-16 13:14 34.425230 -119.908519 267 2162ft 196kts
20-Jan-16 13:15 34.406436 -119.977771 210 2365ft 249kts
20-Jan-16 13:16 34.344186 -119.958641 153 3823ft 246kts
20-Jan-16 13:17 34.282023 -119.915365 153 5187ft 272kts
20-Jan-16 13:18 34.259674 -119.833645 71 6266ft 281kts
20-Jan-16 13:19 34.279273 -119.742415 71 7578ft 279kts
20-Jan-16 13:20 34.299286 -119.651354 71 8807ft 282kts
20-Jan-16 13:21 34.319188 -119.559089 70 10059ft 287kts
20-Jan-16 13:22 34.339967 -119.463213 71 11512ft 300kts
20-Jan-16 13:23 34.360383 -119.364544 69 12881ft 303kts
20-Jan-16 13:24 34.381089 -119.266255 69 14150ft 304kts
20-Jan-16 13:25 34.402362 -119.166173 69 14925ft 321kts
20-Jan-16 13:26 34.425618 -119.057469 69 14963ft 346kts
20-Jan-16 13:27 34.449902 -118.942925 70 14966ft 358kts
20-Jan-16 13:28 34.474665 -118.825106 70 14972ft 364kts
20-Jan-16 13:29 34.499477 -118.706340 70 14978ft 366kts
20-Jan-16 13:30 34.524197 -118.587414 70 14975ft 367kts
20-Jan-16 13:31 34.548943 -118.467665 70 14980ft 368kts
20-Jan-16 13:32 34.573664 -118.347394 70 14968ft 368kts
20-Jan-16 13:33 34.598168 -118.227408 70 14965ft 368kts
20-Jan-16 13:34 34.622382 -118.108128 71 14961ft 369kts
20-Jan-16 13:35 34.599399 -117.988539 120 14964ft 384kts
20-Jan-16 13:36 34.545123 -117.877346 117 14959ft 387kts
20-Jan-16 13:37 34.494012 -117.762936 116 14960ft 387kts
20-Jan-16 13:38 34.441520 -117.649133 117 14961ft 387kts
20-Jan-16 13:39 34.388876 -117.535204 117 14957ft 388kts
20-Jan-16 13:40 34.336095 -117.421207 117 14954ft 388kts
20-Jan-16 13:41 34.283656 -117.308181 117 14955ft 386kts
20-Jan-16 13:42 34.230995 -117.195107 117 14961ft 387kts
20-Jan-16 13:43 34.177827 -117.081594 117 14972ft 388kts
20-Jan-16 13:44 34.124706 -116.968077 117 14985ft 388kts
20-Jan-16 13:45 34.071544 -116.855106 117 15064ft 386kts
20-Jan-16 13:46 34.018518 -116.742537 117 15070ft 388kts
20-Jan-16 13:47 33.965176 -116.629791 117 15044ft 387kts
20-Jan-16 13:48 33.920442 -116.535634 117 15019ft 388kts
20-Jan-16 13:49 33.866612 -116.424600 124 15129ft 383kts
20-Jan-16 13:50 33.809057 -116.321180 121 13670ft 348kts
20-Jan-16 13:51 33.758679 -116.228340 121 11860ft 321kts
20-Jan-16 13:52 33.711927 -116.141313 121 10062ft 297kts
20-Jan-16 13:53 33.664730 -116.063171 151 8251ft 293kts
20-Jan-16 13:54 33.607436 -116.090680 262 6441ft 234kts
20-Jan-16 13:55 33.634187 -116.159703 305 5030ft 231kts
20-Jan-16 13:56 33.680567 -116.208785 318 4945ft 214kts
20-Jan-16 13:57 33.717783 -116.261688 302 4978ft 211kts
20-Jan-16 13:58 33.748871 -116.320299 300 4078ft 215kts
20-Jan-16 13:59 33.767240 -116.381467 287 2683ft 174kts
20-Jan-16 14:00 33.779149 -116.432790 287 2021ft 139kts
20-Jan-16 14:01 33.793826 -116.473805 307 1206ft 130kts
20-Jan-16 14:02 33.821675 -116.500640 324 521ft 122kts
20-Jan-16 14:03 33.833234 -116.511373 268 484ft 10kts
20-Jan-16 14:04 33.832803 -116.511967 201 484ft 4kts
20-Jan-16 14:05 33.829940 -116.510056 143 484ft 17kts
20-Jan-16 14:06 33.826564 -116.506947 143 484ft 15kts
20-Jan-16 14:07 33.823315 -116.504338 196 484ft 12kts
20-Jan-16 14:08 33.822379 -116.506200 331 484ft 3kts
20-Jan-16 14:09 33.822396 -116.506210 332 484ft 0kts
20-Jan-16 14:10 33.822396 -116.506210 332 484ft 0kts
20-Jan-16 14:11 33.822396 -116.506210 332 484ft 0kts

Navigation Log

Ident Type
Flight plan parsing failed, navigation log unavailable